Portada
METAR-TAF:

METAR-TAF

Aeroports :

Nouakchott, Mauritània

latitud: 18-18-36N, longitud: 015-58-11W, altitud: 3 m

Observació

L'informe es va fer fa 18 minuts, a les 08:30 UTC
Vent 2 kt amb direcció variable
Temperatura 27°C
Humitat 84%
Pressió 1013 hPa
Visibilitat 10 km o més
Cel ennuvolat a una alçada de 1300 ft

METAR: GQNO 240830Z VRB02KT 9999 BKN013 27/24 Q1013 NOSIG

Hora: 08:48 (08:48 UTC)

Pronòstic

L'informe es va fer fa 3 hores i 48 minuts, a les 05:00 UTC
Pronòstic vàlid del 24 a les 06 UTC al 25 a les 12 UTC
Vent 12 kt del Oest
Visibilitat: 7000 m
Escasses núvols a una alçada de 1000 ft
Probabilitat 40% :
Temporalment
l' 24 a les 07 UTC al 24 a les 10 UTC
Cel ennuvolat a una alçada de 800 ft

TAF: GQNO 240500Z 2406/2512 28012KT 7000 FEW010 PROB40 TEMPO 2407/2410 BKN008

Observacions i pronòstics meteorològics de més de 4000 aeroports (METAR i TAF).

Les estacions disponibles són els punts grocs i vermells al mapa.

Posi el ratolí al punt desitjat per veure el nom de l'estació.

Feu clic per veure les observacions i els pronòstics meteorològics.

Per canviar el mapa: feu clic els botons verds amb una creu de color negre per apropar; al botó verd amb un guió per allunyar la imatge; o en les fletxes verdes per a mapes adjacents.


METAR-TAF: